sensor_id;sensor_type;location;lat;lon;timestamp;pressure;altitude;pressure_sealevel;temperature;humidity
34124;BME280;13153;52.316;21.166;2023-05-29T00:01:15;100714.56;;;15.85;52.94
34124;BME280;13153;52.316;21.166;2023-05-29T00:03:44;100706.56;;;15.82;52.74
34124;BME280;13153;52.316;21.166;2023-05-29T00:06:10;100710.09;;;15.80;52.94
34124;BME280;13153;52.316;21.166;2023-05-29T00:08:36;100702.06;;;15.74;52.85
34124;BME280;13153;52.316;21.166;2023-05-29T00:11:02;100707.31;;;15.69;53.25
34124;BME280;13153;52.316;21.166;2023-05-29T00:13:28;100697.53;;;15.64;53.29
34124;BME280;13153;52.316;21.166;2023-05-29T00:15:54;100694.84;;;15.59;52.29
34124;BME280;13153;52.316;21.166;2023-05-29T00:18:21;100697.41;;;15.53;52.94
34124;BME280;13153;52.316;21.166;2023-05-29T00:20:46;100700.84;;;15.46;52.48
34124;BME280;13153;52.316;21.166;2023-05-29T00:23:12;100699.91;;;15.41;52.28
34124;BME280;13153;52.316;21.166;2023-05-29T00:25:38;100702.53;;;15.38;52.80
34124;BME280;13153;52.316;21.166;2023-05-29T00:28:07;100698.09;;;15.37;52.83
34124;BME280;13153;52.316;21.166;2023-05-29T00:30:33;100699.81;;;15.33;53.39
34124;BME280;13153;52.316;21.166;2023-05-29T00:32:58;100701.53;;;15.28;53.52
34124;BME280;13153;52.316;21.166;2023-05-29T00:35:24;100709.44;;;15.25;53.07
34124;BME280;13153;52.316;21.166;2023-05-29T00:37:50;100697.97;;;15.26;53.10
34124;BME280;13153;52.316;21.166;2023-05-29T00:40:16;100697.09;;;15.29;53.31
34124;BME280;13153;52.316;21.166;2023-05-29T00:42:42;100704.19;;;15.30;54.07
34124;BME280;13153;52.316;21.166;2023-05-29T00:45:08;100705.09;;;15.32;54.40
34124;BME280;13153;52.316;21.166;2023-05-29T00:47:34;100700.66;;;15.31;54.26
34124;BME280;13153;52.316;21.166;2023-05-29T00:50:02;100705.03;;;15.27;54.33
34124;BME280;13153;52.316;21.166;2023-05-29T00:52:29;100709.44;;;15.27;54.10
34124;BME280;13153;52.316;21.166;2023-05-29T00:54:56;100702.34;;;15.23;54.28
34124;BME280;13153;52.316;21.166;2023-05-29T00:57:23;100708.50;;;15.22;54.02
34124;BME280;13153;52.316;21.166;2023-05-29T00:59:51;100710.25;;;15.19;54.04
34124;BME280;13153;52.316;21.166;2023-05-29T01:02:17;100710.22;;;15.18;54.06
34124;BME280;13153;52.316;21.166;2023-05-29T01:04:45;100705.75;;;15.14;54.16
34124;BME280;13153;52.316;21.166;2023-05-29T01:07:11;100700.38;;;15.09;53.98
34124;BME280;13153;52.316;21.166;2023-05-29T01:09:38;100705.66;;;15.06;54.59
34124;BME280;13153;52.316;21.166;2023-05-29T01:12:57;100693.28;;;15.05;54.00
34124;BME280;13153;52.316;21.166;2023-05-29T01:18:10;100696.78;;;15.01;54.11
34124;BME280;13153;52.316;21.166;2023-05-29T01:21:03;100693.06;;;14.89;54.04
34124;BME280;13153;52.316;21.166;2023-05-29T01:29:00;100700.78;;;14.72;53.72
34124;BME280;13153;52.316;21.166;2023-05-29T01:31:29;100706.03;;;14.70;54.42
34124;BME280;13153;52.316;21.166;2023-05-29T01:33:58;100699.88;;;14.71;54.41
34124;BME280;13153;52.316;21.166;2023-05-29T01:36:26;100704.25;;;14.69;54.53
34124;BME280;13153;52.316;21.166;2023-05-29T01:38:55;100704.25;;;14.69;55.05
34124;BME280;13153;52.316;21.166;2023-05-29T01:41:23;100696.28;;;14.68;54.16
34124;BME280;13153;52.316;21.166;2023-05-29T01:43:50;100697.16;;;14.67;54.04
34124;BME280;13153;52.316;21.166;2023-05-29T01:46:18;100696.22;;;14.63;54.48
34124;BME280;13153;52.316;21.166;2023-05-29T01:48:45;100703.22;;;14.58;53.63
34124;BME280;13153;52.316;21.166;2023-05-29T01:51:12;100705.72;;;14.50;54.01
34124;BME280;13153;52.316;21.166;2023-05-29T01:53:39;100704.81;;;14.48;53.98
34124;BME280;13153;52.316;21.166;2023-05-29T01:56:07;100703.91;;;14.46;53.80
34124;BME280;13153;52.316;21.166;2023-05-29T01:58:35;100699.50;;;14.47;53.86
34124;BME280;13153;52.316;21.166;2023-05-29T02:01:06;100700.38;;;14.46;54.63
34124;BME280;13153;52.316;21.166;2023-05-29T02:03:32;100706.53;;;14.45;54.39
34124;BME280;13153;52.316;21.166;2023-05-29T02:06:00;100699.47;;;14.45;54.44
34124;BME280;13153;52.316;21.166;2023-05-29T02:08:26;100696.81;;;14.42;54.60
34124;BME280;13153;52.316;21.166;2023-05-29T02:10:52;100699.34;;;14.38;53.85
34124;BME280;13153;52.316;21.166;2023-05-29T02:13:18;100687.84;;;14.36;53.93
34124;BME280;13153;52.316;21.166;2023-05-29T02:15:44;100685.16;;;14.33;53.85
34124;BME280;13153;52.316;21.166;2023-05-29T02:18:13;100685.06;;;14.28;53.62
34124;BME280;13153;52.316;21.166;2023-05-29T02:20:39;100679.72;;;14.25;54.01
34124;BME280;13153;52.316;21.166;2023-05-29T02:23:05;100677.00;;;14.20;53.86
34124;BME280;13153;52.316;21.166;2023-05-29T02:25:31;100672.56;;;14.19;54.17
34124;BME280;13153;52.316;21.166;2023-05-29T02:27:57;100681.38;;;14.18;54.29
34124;BME280;13153;52.316;21.166;2023-05-29T02:30:23;100680.50;;;14.19;54.31
34124;BME280;13153;52.316;21.166;2023-05-29T02:32:48;100678.75;;;14.20;54.01
34124;BME280;13153;52.316;21.166;2023-05-29T02:35:14;100675.31;;;14.24;54.46
34124;BME280;13153;52.316;21.166;2023-05-29T02:37:41;100669.19;;;14.28;54.64
34124;BME280;13153;52.316;21.166;2023-05-29T02:40:07;100676.25;;;14.29;54.26
34124;BME280;13153;52.316;21.166;2023-05-29T02:42:35;100663.09;;;14.34;53.57
34124;BME280;13153;52.316;21.166;2023-05-29T02:45:00;100657.97;;;14.41;53.94
34124;BME280;13153;52.316;21.166;2023-05-29T02:47:27;100658.94;;;14.49;53.63
34124;BME280;13153;52.316;21.166;2023-05-29T02:49:52;100664.31;;;14.56;54.07
34124;BME280;13153;52.316;21.166;2023-05-29T02:52:18;100665.28;;;14.61;53.54
34124;BME280;13153;52.316;21.166;2023-05-29T02:54:44;100665.38;;;14.67;53.57
34124;BME280;13153;52.316;21.166;2023-05-29T02:57:10;100670.81;;;14.76;53.30
34124;BME280;13153;52.316;21.166;2023-05-29T02:59:35;100673.59;;;14.86;53.20
34124;BME280;13153;52.316;21.166;2023-05-29T03:02:01;100670.25;;;15.00;53.04
34124;BME280;13153;52.316;21.166;2023-05-29T03:04:27;100673.97;;;15.15;52.89
34124;BME280;13153;52.316;21.166;2023-05-29T03:06:53;100676.72;;;15.25;52.64
34124;BME280;13153;52.316;21.166;2023-05-29T03:09:20;100672.47;;;15.37;51.90
34124;BME280;13153;52.316;21.166;2023-05-29T03:11:45;100685.06;;;15.55;51.62
34124;BME280;13153;52.316;21.166;2023-05-29T03:14:13;100676.41;;;15.71;50.78
34124;BME280;13153;52.316;21.166;2023-05-29T03:16:39;100665.91;;;15.83;49.96
34124;BME280;13153;52.316;21.166;2023-05-29T03:19:07;100671.38;;;15.99;50.42
34124;BME280;13153;52.316;21.166;2023-05-29T03:21:33;100669.72;;;16.11;49.55
34124;BME280;13153;52.316;21.166;2023-05-29T03:23:59;100682.22;;;16.31;49.49
34124;BME280;13153;52.316;21.166;2023-05-29T03:26:26;100678.00;;;16.56;49.38
34124;BME280;13153;52.316;21.166;2023-05-29T03:28:52;100675.50;;;16.80;49.44
34124;BME280;13153;52.316;21.166;2023-05-29T03:31:17;100678.31;;;17.07;48.80
34124;BME280;13153;52.316;21.166;2023-05-29T03:33:43;100684.63;;;17.32;47.98
34124;BME280;13153;52.316;21.166;2023-05-29T03:36:09;100686.47;;;17.55;47.16
34124;BME280;13153;52.316;21.166;2023-05-29T03:38:36;100697.19;;;17.74;46.79
34124;BME280;13153;52.316;21.166;2023-05-29T03:41:02;100695.44;;;17.98;46.92
34124;BME280;13153;52.316;21.166;2023-05-29T03:43:28;100688.38;;;18.21;47.00
34124;BME280;13153;52.316;21.166;2023-05-29T03:45:54;100689.22;;;18.54;46.43
34124;BME280;13153;52.316;21.166;2023-05-29T03:48:19;100687.41;;;18.94;46.00
34124;BME280;13153;52.316;21.166;2023-05-29T03:50:46;100689.88;;;19.41;44.11
34124;BME280;13153;52.316;21.166;2023-05-29T03:53:12;100684.38;;;19.74;43.76
34124;BME280;13153;52.316;21.166;2023-05-29T03:55:38;100689.56;;;19.99;43.51
34124;BME280;13153;52.316;21.166;2023-05-29T03:58:04;100696.59;;;20.12;43.17
34124;BME280;13153;52.316;21.166;2023-05-29T04:00:30;100699.97;;;20.29;43.26
34124;BME280;13153;52.316;21.166;2023-05-29T04:02:56;100701.53;;;20.62;42.67
34124;BME280;13153;52.316;21.166;2023-05-29T04:05:22;100694.97;;;20.89;42.36
34124;BME280;13153;52.316;21.166;2023-05-29T04:07:48;100698.25;;;21.16;41.88
34124;BME280;13153;52.316;21.166;2023-05-29T04:10:13;100704.22;;;21.39;41.73
34124;BME280;13153;52.316;21.166;2023-05-29T04:12:39;100709.31;;;21.59;40.74
34124;BME280;13153;52.316;21.166;2023-05-29T04:15:06;100711.63;;;21.86;39.89
34124;BME280;13153;52.316;21.166;2023-05-29T04:17:32;100710.31;;;22.15;39.38
34124;BME280;13153;52.316;21.166;2023-05-29T04:19:58;100709.91;;;22.40;38.83
34124;BME280;13153;52.316;21.166;2023-05-29T04:22:24;100710.19;;;22.73;38.25
34124;BME280;13153;52.316;21.166;2023-05-29T04:24:50;100711.34;;;23.09;37.30
34124;BME280;13153;52.316;21.166;2023-05-29T04:27:16;100720.63;;;23.36;36.63
34124;BME280;13153;52.316;21.166;2023-05-29T04:29:42;100716.25;;;23.74;36.20
34124;BME280;13153;52.316;21.166;2023-05-29T04:32:09;100715.47;;;24.09;35.41
34124;BME280;13153;52.316;21.166;2023-05-29T04:34:37;100710.22;;;24.40;35.15
34124;BME280;13153;52.316;21.166;2023-05-29T04:37:05;100716.63;;;24.69;35.45
34124;BME280;13153;52.316;21.166;2023-05-29T04:39:32;100711.66;;;25.21;34.21
34124;BME280;13153;52.316;21.166;2023-05-29T04:41:58;100723.38;;;25.80;33.35
34124;BME280;13153;52.316;21.166;2023-05-29T04:44:27;100723.38;;;26.62;31.69
34124;BME280;13153;52.316;21.166;2023-05-29T04:46:54;100722.72;;;26.82;31.32
34124;BME280;13153;52.316;21.166;2023-05-29T04:49:20;100725.19;;;27.15;30.36
34124;BME280;13153;52.316;21.166;2023-05-29T04:51:47;100721.84;;;27.78;29.37
34124;BME280;13153;52.316;21.166;2023-05-29T04:54:12;100722.81;;;29.07;28.00
34124;BME280;13153;52.316;21.166;2023-05-29T04:56:39;100725.59;;;30.21;26.03
34124;BME280;13153;52.316;21.166;2023-05-29T04:59:07;100712.28;;;31.04;25.10
34124;BME280;13153;52.316;21.166;2023-05-29T05:01:34;100717.91;;;31.67;23.99
34124;BME280;13153;52.316;21.166;2023-05-29T05:04:00;100725.50;;;32.09;24.21
34124;BME280;13153;52.316;21.166;2023-05-29T05:06:26;100722.88;;;32.69;23.60
34124;BME280;13153;52.316;21.166;2023-05-29T05:08:53;100723.66;;;33.31;22.74
34124;BME280;13153;52.316;21.166;2023-05-29T05:11:20;100732.84;;;33.87;21.92
34124;BME280;13153;52.316;21.166;2023-05-29T05:13:46;100727.03;;;34.47;20.84
34124;BME280;13153;52.316;21.166;2023-05-29T05:16:12;100719.19;;;34.95;20.62
34124;BME280;13153;52.316;21.166;2023-05-29T05:18:38;100714.84;;;35.30;20.88
34124;BME280;13153;52.316;21.166;2023-05-29T05:21:05;100721.97;;;35.58;20.42
34124;BME280;13153;52.316;21.166;2023-05-29T05:23:32;100730.44;;;36.04;19.59
34124;BME280;13153;52.316;21.166;2023-05-29T05:25:58;100721.03;;;36.56;19.68
34124;BME280;13153;52.316;21.166;2023-05-29T05:28:24;100727.47;;;37.14;19.36
34124;BME280;13153;52.316;21.166;2023-05-29T05:30:50;100726.31;;;37.63;18.16
34124;BME280;13153;52.316;21.166;2023-05-29T05:33:16;100728.34;;;37.72;18.29
34124;BME280;13153;52.316;21.166;2023-05-29T05:35:42;100737.22;;;37.87;18.21
34124;BME280;13153;52.316;21.166;2023-05-29T05:38:08;100730.56;;;38.00;17.20
34124;BME280;13153;52.316;21.166;2023-05-29T05:40:34;100735.81;;;38.15;17.70
34124;BME280;13153;52.316;21.166;2023-05-29T05:43:00;100736.72;;;38.58;17.06
34124;BME280;13153;52.316;21.166;2023-05-29T05:45:26;100730.88;;;38.73;17.28
34124;BME280;13153;52.316;21.166;2023-05-29T05:47:52;100732.19;;;38.89;17.08
34124;BME280;13153;52.316;21.166;2023-05-29T05:50:18;100732.53;;;38.96;17.44
34124;BME280;13153;52.316;21.166;2023-05-29T05:52:44;100735.00;;;39.10;16.73
34124;BME280;13153;52.316;21.166;2023-05-29T05:55:10;100728.06;;;39.16;16.98
34124;BME280;13153;52.316;21.166;2023-05-29T05:57:36;100730.91;;;39.05;16.35
34124;BME280;13153;52.316;21.166;2023-05-29T06:00:03;100733.44;;;38.64;16.83
34124;BME280;13153;52.316;21.166;2023-05-29T06:02:39;100738.47;;;38.48;16.36
34124;BME280;13153;52.316;21.166;2023-05-29T06:05:08;100737.88;;;38.45;17.02
34124;BME280;13153;52.316;21.166;2023-05-29T06:07:35;100737.09;;;38.54;17.23
34124;BME280;13153;52.316;21.166;2023-05-29T06:10:03;100731.97;;;38.60;17.13
34124;BME280;13153;52.316;21.166;2023-05-29T06:12:29;100728.47;;;38.79;15.94
34124;BME280;13153;52.316;21.166;2023-05-29T06:14:55;100729.44;;;38.69;16.57
34124;BME280;13153;52.316;21.166;2023-05-29T06:17:22;100722.19;;;38.56;16.80
34124;BME280;13153;52.316;21.166;2023-05-29T06:19:49;100721.38;;;38.77;16.10
34124;BME280;13153;52.316;21.166;2023-05-29T06:22:15;100722.97;;;38.58;15.73
34124;BME280;13153;52.316;21.166;2023-05-29T06:24:41;100723.94;;;38.69;16.71
34124;BME280;13153;52.316;21.166;2023-05-29T06:27:07;100729.16;;;38.92;16.26
34124;BME280;13153;52.316;21.166;2023-05-29T06:29:34;100723.38;;;39.27;16.18
34124;BME280;13153;52.316;21.166;2023-05-29T06:32:00;100727.91;;;39.38;15.78
34124;BME280;13153;52.316;21.166;2023-05-29T06:34:25;100726.97;;;39.49;14.76
34124;BME280;13153;52.316;21.166;2023-05-29T06:36:51;100728.84;;;39.48;15.03
34124;BME280;13153;52.316;21.166;2023-05-29T06:39:17;100724.25;;;39.38;15.26
34124;BME280;13153;52.316;21.166;2023-05-29T06:41:44;100726.94;;;39.70;15.67
34124;BME280;13153;52.316;21.166;2023-05-29T06:44:09;100728.59;;;39.82;15.81
34124;BME280;13153;52.316;21.166;2023-05-29T06:46:35;100720.41;;;40.11;15.43
34124;BME280;13153;52.316;21.166;2023-05-29T06:49:01;100724.50;;;40.26;14.62
34124;BME280;13153;52.316;21.166;2023-05-29T06:51:27;100714.69;;;40.52;14.96
34124;BME280;13153;52.316;21.166;2023-05-29T06:53:52;100708.28;;;40.52;14.13
34124;BME280;13153;52.316;21.166;2023-05-29T06:56:18;100716.53;;;40.23;14.05
34124;BME280;13153;52.316;21.166;2023-05-29T06:58:44;100719.31;;;40.33;15.38
34124;BME280;13153;52.316;21.166;2023-05-29T07:01:11;100722.09;;;40.71;14.81
34124;BME280;13153;52.316;21.166;2023-05-29T07:03:37;100724.41;;;40.47;13.71
34124;BME280;13153;52.316;21.166;2023-05-29T07:06:04;100726.81;;;40.21;14.70
34124;BME280;13153;52.316;21.166;2023-05-29T07:08:30;100725.53;;;40.25;14.46
34124;BME280;13153;52.316;21.166;2023-05-29T07:10:55;100714.97;;;39.90;14.42
34124;BME280;13153;52.316;21.166;2023-05-29T07:13:21;100725.38;;;39.86;14.18
34124;BME280;13153;52.316;21.166;2023-05-29T07:15:48;100724.34;;;40.18;14.03
34124;BME280;13153;52.316;21.166;2023-05-29T07:18:14;100727.72;;;40.31;13.53
34124;BME280;13153;52.316;21.166;2023-05-29T07:20:40;100735.75;;;40.34;13.34
34124;BME280;13153;52.316;21.166;2023-05-29T07:23:06;100724.50;;;40.26;13.91
34124;BME280;13153;52.316;21.166;2023-05-29T07:25:31;100729.19;;;39.85;13.19
34124;BME280;13153;52.316;21.166;2023-05-29T07:27:58;100737.22;;;39.98;13.89
34124;BME280;13153;52.316;21.166;2023-05-29T07:30:24;100724.63;;;40.15;14.10
34124;BME280;13153;52.316;21.166;2023-05-29T07:32:49;100734.72;;;39.95;14.60
34124;BME280;13153;52.316;21.166;2023-05-29T07:35:15;100722.88;;;39.74;13.56
34124;BME280;13153;52.316;21.166;2023-05-29T07:37:41;100724.13;;;39.90;13.91
34124;BME280;13153;52.316;21.166;2023-05-29T07:40:07;100728.84;;;40.19;14.25
34124;BME280;13153;52.316;21.166;2023-05-29T07:42:34;100731.53;;;40.49;14.10
34124;BME280;13153;52.316;21.166;2023-05-29T07:45:00;100733.56;;;39.98;13.61
34124;BME280;13153;52.316;21.166;2023-05-29T07:47:26;100730.03;;;39.35;14.00
34124;BME280;13153;52.316;21.166;2023-05-29T07:49:52;100730.66;;;39.59;14.35
34124;BME280;13153;52.316;21.166;2023-05-29T07:52:18;100723.94;;;39.82;13.59
34124;BME280;13153;52.316;21.166;2023-05-29T07:54:44;100726.56;;;39.53;13.19
34124;BME280;13153;52.316;21.166;2023-05-29T07:57:10;100724.88;;;39.00;13.69
34124;BME280;13153;52.316;21.166;2023-05-29T07:59:37;100728.56;;;38.68;13.89
34124;BME280;13153;52.316;21.166;2023-05-29T08:02:07;100729.34;;;38.59;14.32
34124;BME280;13153;52.316;21.166;2023-05-29T08:04:32;100723.56;;;38.19;14.82
34124;BME280;13153;52.316;21.166;2023-05-29T08:07:00;100733.06;;;37.37;15.45
34124;BME280;13153;52.316;21.166;2023-05-29T08:09:26;100723.56;;;36.35;16.17
34124;BME280;13153;52.316;21.166;2023-05-29T08:11:52;100729.50;;;35.17;17.13
34124;BME280;13153;52.316;21.166;2023-05-29T08:14:18;100729.22;;;34.28;17.73
34124;BME280;13153;52.316;21.166;2023-05-29T08:16:44;100719.84;;;33.76;17.96
34124;BME280;13153;52.316;21.166;2023-05-29T08:19:10;100723.94;;;32.97;19.43
34124;BME280;13153;52.316;21.166;2023-05-29T08:21:36;100707.19;;;32.59;19.90
34124;BME280;13153;52.316;21.166;2023-05-29T08:24:04;100714.63;;;32.25;19.25
34124;BME280;13153;52.316;21.166;2023-05-29T08:26:32;100703.53;;;32.12;19.41
34124;BME280;13153;52.316;21.166;2023-05-29T08:28:58;100708.09;;;32.12;20.58
34124;BME280;13153;52.316;21.166;2023-05-29T08:31:24;100706.09;;;32.15;20.85
34124;BME280;13153;52.316;21.166;2023-05-29T08:33:51;100712.00;;;32.24;21.61
34124;BME280;13153;52.316;21.166;2023-05-29T08:36:17;100705.06;;;32.34;21.68
34124;BME280;13153;52.316;21.166;2023-05-29T08:38:43;100710.78;;;32.29;21.02
34124;BME280;13153;52.316;21.166;2023-05-29T08:44:03;100707.50;;;31.42;21.06
34124;BME280;13153;52.316;21.166;2023-05-29T08:46:30;100711.03;;;31.27;21.23
34124;BME280;13153;52.316;21.166;2023-05-29T08:48:58;100705.88;;;31.05;20.12
34124;BME280;13153;52.316;21.166;2023-05-29T08:51:37;100709.72;;;30.84;21.42
34124;BME280;13153;52.316;21.166;2023-05-29T08:54:04;100705.25;;;30.83;21.79
34124;BME280;13153;52.316;21.166;2023-05-29T08:56:30;100704.75;;;30.75;21.67
34124;BME280;13153;52.316;21.166;2023-05-29T08:58:57;100708.72;;;30.50;22.21
34124;BME280;13153;52.316;21.166;2023-05-29T09:01:24;100705.91;;;30.35;21.63
34124;BME280;13153;52.316;21.166;2023-05-29T09:03:51;100696.75;;;30.18;22.95
34124;BME280;13153;52.316;21.166;2023-05-29T09:06:16;100691.84;;;30.08;21.94
34124;BME280;13153;52.316;21.166;2023-05-29T09:08:43;100702.34;;;29.78;21.95
34124;BME280;13153;52.316;21.166;2023-05-29T09:11:10;100695.50;;;29.50;22.67
34124;BME280;13153;52.316;21.166;2023-05-29T09:13:35;100700.16;;;29.28;22.30
34124;BME280;13153;52.316;21.166;2023-05-29T09:16:01;100699.44;;;29.24;23.17
34124;BME280;13153;52.316;21.166;2023-05-29T09:18:32;100691.34;;;29.23;22.14
34124;BME280;13153;52.316;21.166;2023-05-29T09:20:58;100687.03;;;29.19;22.97
34124;BME280;13153;52.316;21.166;2023-05-29T09:23:26;100691.63;;;29.17;23.62
34124;BME280;13153;52.316;21.166;2023-05-29T09:25:53;100691.16;;;29.07;22.85
34124;BME280;13153;52.316;21.166;2023-05-29T09:28:21;100688.53;;;29.06;23.96
34124;BME280;13153;52.316;21.166;2023-05-29T09:30:49;100684.31;;;29.19;23.80
34124;BME280;13153;52.316;21.166;2023-05-29T09:33:16;100687.28;;;29.33;24.23
34124;BME280;13153;52.316;21.166;2023-05-29T09:35:47;100692.06;;;29.47;24.17
34124;BME280;13153;52.316;21.166;2023-05-29T09:38:18;100692.22;;;29.63;24.44
34124;BME280;13153;52.316;21.166;2023-05-29T09:40:44;100687.63;;;29.65;23.32
34124;BME280;13153;52.316;21.166;2023-05-29T09:43:16;100687.38;;;29.50;22.66
34124;BME280;13153;52.316;21.166;2023-05-29T09:45:49;100678.25;;;29.33;22.29
34124;BME280;13153;52.316;21.166;2023-05-29T09:48:18;100677.16;;;28.98;22.70
34124;BME280;13153;52.316;21.166;2023-05-29T09:50:47;100677.09;;;28.79;24.31
34124;BME280;13153;52.316;21.166;2023-05-29T09:53:22;100675.16;;;28.60;22.61
34124;BME280;13153;52.316;21.166;2023-05-29T09:55:52;100671.56;;;28.40;22.61
34124;BME280;13153;52.316;21.166;2023-05-29T09:58:19;100666.00;;;28.22;22.82
34124;BME280;13153;52.316;21.166;2023-05-29T10:00:46;100663.28;;;28.22;23.79
34124;BME280;13153;52.316;21.166;2023-05-29T10:03:13;100670.03;;;28.33;24.00
34124;BME280;13153;52.316;21.166;2023-05-29T10:05:46;100661.28;;;28.27;23.63
34124;BME280;13153;52.316;21.166;2023-05-29T10:08:15;100663.19;;;28.02;23.30
34124;BME280;13153;52.316;21.166;2023-05-29T10:10:49;100664.25;;;27.76;24.00
34124;BME280;13153;52.316;21.166;2023-05-29T10:13:17;100661.75;;;27.72;24.58
34124;BME280;13153;52.316;21.166;2023-05-29T10:15:46;100661.53;;;27.76;24.90
34124;BME280;13153;52.316;21.166;2023-05-29T10:18:21;100663.63;;;27.70;24.35
34124;BME280;13153;52.316;21.166;2023-05-29T10:20:55;100667.72;;;27.56;24.13
34124;BME280;13153;52.316;21.166;2023-05-29T10:23:25;100664.63;;;27.44;24.33
34124;BME280;13153;52.316;21.166;2023-05-29T10:25:54;100667.50;;;27.39;25.56
34124;BME280;13153;52.316;21.166;2023-05-29T10:28:26;100660.63;;;27.30;24.50
34124;BME280;13153;52.316;21.166;2023-05-29T10:30:53;100657.72;;;27.35;25.94
34124;BME280;13153;52.316;21.166;2023-05-29T10:36:16;100658.91;;;27.51;23.87
34124;BME280;13153;52.316;21.166;2023-05-29T10:38:47;100660.56;;;27.55;24.47
34124;BME280;13153;52.316;21.166;2023-05-29T10:43:54;100657.91;;;27.54;23.79
34124;BME280;13153;52.316;21.166;2023-05-29T10:46:21;100653.63;;;27.48;24.19
34124;BME280;13153;52.316;21.166;2023-05-29T10:48:49;100651.88;;;27.47;24.37
34124;BME280;13153;52.316;21.166;2023-05-29T10:51:28;100650.03;;;27.48;25.92
34124;BME280;13153;52.316;21.166;2023-05-29T10:53:55;100648.22;;;27.48;24.63
34124;BME280;13153;52.316;21.166;2023-05-29T10:56:29;100649.16;;;27.47;25.27
34124;BME280;13153;52.316;21.166;2023-05-29T10:58:58;100648.69;;;27.36;23.87
34124;BME280;13153;52.316;21.166;2023-05-29T11:01:29;100643.63;;;27.27;24.49
34124;BME280;13153;52.316;21.166;2023-05-29T11:06:44;100635.94;;;27.16;25.97
34124;BME280;13153;52.316;21.166;2023-05-29T11:09:30;100637.97;;;27.11;24.15
34124;BME280;13153;52.316;21.166;2023-05-29T11:12:21;100630.06;;;27.05;25.02
34124;BME280;13153;52.316;21.166;2023-05-29T11:15:05;100630.97;;;27.06;24.89
34124;BME280;13153;52.316;21.166;2023-05-29T11:20:09;100626.94;;;27.16;24.84
34124;BME280;13153;52.316;21.166;2023-05-29T11:23:00;100631.78;;;27.08;24.34
34124;BME280;13153;52.316;21.166;2023-05-29T11:25:27;100631.06;;;27.03;24.32
34124;BME280;13153;52.316;21.166;2023-05-29T11:27:53;100627.59;;;26.99;23.61
34124;BME280;13153;52.316;21.166;2023-05-29T11:30:20;100623.78;;;27.05;24.59
34124;BME280;13153;52.316;21.166;2023-05-29T11:32:47;100628.69;;;27.17;24.91
34124;BME280;13153;52.316;21.166;2023-05-29T11:35:14;100618.38;;;27.28;25.31
34124;BME280;13153;52.316;21.166;2023-05-29T11:37:42;100623.25;;;27.42;26.34
34124;BME280;13153;52.316;21.166;2023-05-29T11:40:09;100621.75;;;27.56;26.63
34124;BME280;13153;52.316;21.166;2023-05-29T11:42:37;100625.72;;;27.71;26.87
34124;BME280;13153;52.316;21.166;2023-05-29T11:45:19;100615.13;;;27.87;25.95
34124;BME280;13153;52.316;21.166;2023-05-29T11:50:23;100614.38;;;27.83;26.88
34124;BME280;13153;52.316;21.166;2023-05-29T11:52:50;100606.50;;;27.77;26.95
34124;BME280;13153;52.316;21.166;2023-05-29T11:55:21;100612.03;;;27.74;26.36
34124;BME280;13153;52.316;21.166;2023-05-29T11:57:49;100616.44;;;27.77;27.05
34124;BME280;13153;52.316;21.166;2023-05-29T12:00:17;100611.91;;;27.77;26.57
34124;BME280;13153;52.316;21.166;2023-05-29T12:02:43;100615.69;;;27.73;26.31
34124;BME280;13153;52.316;21.166;2023-05-29T12:05:09;100602.84;;;27.78;26.34
34124;BME280;13153;52.316;21.166;2023-05-29T12:07:37;100612.47;;;27.85;25.69
34124;BME280;13153;52.316;21.166;2023-05-29T12:10:14;100607.88;;;27.87;25.91
34124;BME280;13153;52.316;21.166;2023-05-29T12:12:41;100609.22;;;27.77;25.97
34124;BME280;13153;52.316;21.166;2023-05-29T12:15:08;100608.03;;;27.63;24.70
34124;BME280;13153;52.316;21.166;2023-05-29T12:17:35;100614.13;;;27.44;25.64
34124;BME280;13153;52.316;21.166;2023-05-29T12:20:05;100600.28;;;27.30;26.71
34124;BME280;13153;52.316;21.166;2023-05-29T12:22:39;100599.56;;;27.25;26.13
34124;BME280;13153;52.316;21.166;2023-05-29T12:25:18;100593.72;;;27.14;25.99
34124;BME280;13153;52.316;21.166;2023-05-29T12:27:46;100589.38;;;27.10;26.64
34124;BME280;13153;52.316;21.166;2023-05-29T12:30:19;100586.50;;;27.14;27.34
34124;BME280;13153;52.316;21.166;2023-05-29T12:32:51;100586.06;;;27.25;27.84
34124;BME280;13153;52.316;21.166;2023-05-29T12:35:25;100586.47;;;27.38;27.38
34124;BME280;13153;52.316;21.166;2023-05-29T12:38:00;100593.03;;;27.54;27.34
34124;BME280;13153;52.316;21.166;2023-05-29T12:40:34;100589.88;;;27.66;26.67
34124;BME280;13153;52.316;21.166;2023-05-29T12:43:03;100590.34;;;27.76;26.47
34124;BME280;13153;52.316;21.166;2023-05-29T12:45:32;100591.84;;;27.83;26.17
34124;BME280;13153;52.316;21.166;2023-05-29T12:48:04;100593.50;;;27.87;25.99
34124;BME280;13153;52.316;21.166;2023-05-29T12:53:05;100585.31;;;27.88;26.28
34124;BME280;13153;52.316;21.166;2023-05-29T12:55:36;100574.69;;;27.84;26.64
34124;BME280;13153;52.316;21.166;2023-05-29T12:58:08;100572.22;;;27.78;27.08
34124;BME280;13153;52.316;21.166;2023-05-29T13:00:36;100573.25;;;27.75;27.08
34124;BME280;13153;52.316;21.166;2023-05-29T13:03:02;100576.97;;;27.73;27.12
34124;BME280;13153;52.316;21.166;2023-05-29T13:05:28;100571.41;;;27.76;27.19
34124;BME280;13153;52.316;21.166;2023-05-29T13:07:54;100573.25;;;27.75;26.84
34124;BME280;13153;52.316;21.166;2023-05-29T13:10:21;100568.94;;;27.71;27.17